sensor_id;sensor_type;location;lat;lon;timestamp;temperature;humidity
69595;DHT22;56800;52.142;5.364;2023-04-28T00:00:18;10.30;52.80
69595;DHT22;56800;52.142;5.364;2023-04-28T00:02:44;10.30;52.90
69595;DHT22;56800;52.142;5.364;2023-04-28T00:05:14;10.30;53.10
69595;DHT22;56800;52.142;5.364;2023-04-28T00:07:41;10.30;52.90
69595;DHT22;56800;52.142;5.364;2023-04-28T00:10:08;10.30;52.90
69595;DHT22;56800;52.142;5.364;2023-04-28T00:12:35;10.30;53.10
69595;DHT22;56800;52.142;5.364;2023-04-28T00:15:01;10.30;53.20
69595;DHT22;56800;52.142;5.364;2023-04-28T00:17:29;10.20;53.20
69595;DHT22;56800;52.142;5.364;2023-04-28T00:19:55;10.20;53.20
69595;DHT22;56800;52.142;5.364;2023-04-28T00:22:23;10.20;53.40
69595;DHT22;56800;52.142;5.364;2023-04-28T00:24:49;10.20;53.50
69595;DHT22;56800;52.142;5.364;2023-04-28T00:27:16;10.20;53.70
69595;DHT22;56800;52.142;5.364;2023-04-28T00:29:43;10.20;53.60
69595;DHT22;56800;52.142;5.364;2023-04-28T00:32:10;10.20;53.40
69595;DHT22;56800;52.142;5.364;2023-04-28T00:34:38;10.20;53.30
69595;DHT22;56800;52.142;5.364;2023-04-28T00:37:05;10.20;53.50
69595;DHT22;56800;52.142;5.364;2023-04-28T00:39:32;10.20;53.50
69595;DHT22;56800;52.142;5.364;2023-04-28T00:41:59;10.20;53.30
69595;DHT22;56800;52.142;5.364;2023-04-28T00:44:25;10.20;53.40
69595;DHT22;56800;52.142;5.364;2023-04-28T00:46:52;10.20;53.50
69595;DHT22;56800;52.142;5.364;2023-04-28T00:49:19;10.20;53.70
69595;DHT22;56800;52.142;5.364;2023-04-28T00:51:46;10.20;53.80
69595;DHT22;56800;52.142;5.364;2023-04-28T00:54:13;10.20;53.80
69595;DHT22;56800;52.142;5.364;2023-04-28T00:56:41;10.10;53.80
69595;DHT22;56800;52.142;5.364;2023-04-28T00:59:09;10.10;53.80
69595;DHT22;56800;52.142;5.364;2023-04-28T01:01:35;10.20;53.70
69595;DHT22;56800;52.142;5.364;2023-04-28T01:04:03;10.10;53.70
69595;DHT22;56800;52.142;5.364;2023-04-28T01:06:31;10.20;53.80
69595;DHT22;56800;52.142;5.364;2023-04-28T01:08:58;10.10;53.90
69595;DHT22;56800;52.142;5.364;2023-04-28T01:11:25;10.10;53.90
69595;DHT22;56800;52.142;5.364;2023-04-28T01:13:52;10.10;53.90
69595;DHT22;56800;52.142;5.364;2023-04-28T01:16:19;10.10;54.30
69595;DHT22;56800;52.142;5.364;2023-04-28T01:18:46;10.10;54.70
69595;DHT22;56800;52.142;5.364;2023-04-28T01:21:13;10.10;54.70
69595;DHT22;56800;52.142;5.364;2023-04-28T01:23:40;10.10;55.00
69595;DHT22;56800;52.142;5.364;2023-04-28T01:26:07;10.10;54.90
69595;DHT22;56800;52.142;5.364;2023-04-28T01:28:33;10.10;54.90
69595;DHT22;56800;52.142;5.364;2023-04-28T01:31:00;10.00;55.30
69595;DHT22;56800;52.142;5.364;2023-04-28T01:33:26;10.00;55.40
69595;DHT22;56800;52.142;5.364;2023-04-28T01:35:56;10.00;55.80
69595;DHT22;56800;52.142;5.364;2023-04-28T01:38:24;10.00;55.70
69595;DHT22;56800;52.142;5.364;2023-04-28T01:40:50;10.00;55.70
69595;DHT22;56800;52.142;5.364;2023-04-28T01:43:17;10.00;55.70
69595;DHT22;56800;52.142;5.364;2023-04-28T01:45:44;10.00;55.70
69595;DHT22;56800;52.142;5.364;2023-04-28T01:48:10;10.00;56.70
69595;DHT22;56800;52.142;5.364;2023-04-28T01:50:37;10.00;56.00
69595;DHT22;56800;52.142;5.364;2023-04-28T01:53:04;9.90;56.10
69595;DHT22;56800;52.142;5.364;2023-04-28T01:55:30;10.00;56.30
69595;DHT22;56800;52.142;5.364;2023-04-28T01:57:57;9.90;56.00
69595;DHT22;56800;52.142;5.364;2023-04-28T02:00:24;9.90;55.90
69595;DHT22;56800;52.142;5.364;2023-04-28T02:02:52;9.90;55.90
69595;DHT22;56800;52.142;5.364;2023-04-28T02:05:19;9.90;55.90
69595;DHT22;56800;52.142;5.364;2023-04-28T02:07:45;9.90;56.10
69595;DHT22;56800;52.142;5.364;2023-04-28T02:10:12;9.90;56.00
69595;DHT22;56800;52.142;5.364;2023-04-28T02:12:39;9.90;56.90
69595;DHT22;56800;52.142;5.364;2023-04-28T02:15:08;9.90;55.90
69595;DHT22;56800;52.142;5.364;2023-04-28T02:17:35;9.90;55.80
69595;DHT22;56800;52.142;5.364;2023-04-28T02:20:01;9.90;55.90
69595;DHT22;56800;52.142;5.364;2023-04-28T02:22:28;9.90;55.80
69595;DHT22;56800;52.142;5.364;2023-04-28T02:24:55;9.90;55.60
69595;DHT22;56800;52.142;5.364;2023-04-28T02:27:21;9.90;55.40
69595;DHT22;56800;52.142;5.364;2023-04-28T02:29:48;9.90;55.60
69595;DHT22;56800;52.142;5.364;2023-04-28T02:32:15;9.90;55.70
69595;DHT22;56800;52.142;5.364;2023-04-28T02:34:41;9.90;55.80
69595;DHT22;56800;52.142;5.364;2023-04-28T02:37:08;9.90;56.10
69595;DHT22;56800;52.142;5.364;2023-04-28T02:39:35;9.90;56.40
69595;DHT22;56800;52.142;5.364;2023-04-28T02:42:01;9.90;56.40
69595;DHT22;56800;52.142;5.364;2023-04-28T02:44:30;9.90;57.40
69595;DHT22;56800;52.142;5.364;2023-04-28T02:46:57;9.90;56.30
69595;DHT22;56800;52.142;5.364;2023-04-28T02:49:24;9.90;56.30
69595;DHT22;56800;52.142;5.364;2023-04-28T02:51:51;9.80;56.20
69595;DHT22;56800;52.142;5.364;2023-04-28T02:54:17;9.90;56.50
69595;DHT22;56800;52.142;5.364;2023-04-28T02:56:53;9.80;56.60
69595;DHT22;56800;52.142;5.364;2023-04-28T02:59:21;9.80;56.60
69595;DHT22;56800;52.142;5.364;2023-04-28T03:01:49;9.80;56.20
69595;DHT22;56800;52.142;5.364;2023-04-28T03:04:16;9.80;56.00
69595;DHT22;56800;52.142;5.364;2023-04-28T03:06:43;9.80;56.00
69595;DHT22;56800;52.142;5.364;2023-04-28T03:09:10;9.80;56.00
69595;DHT22;56800;52.142;5.364;2023-04-28T03:11:38;9.80;56.00
69595;DHT22;56800;52.142;5.364;2023-04-28T03:14:04;9.80;56.30
69595;DHT22;56800;52.142;5.364;2023-04-28T03:16:31;9.80;56.40
69595;DHT22;56800;52.142;5.364;2023-04-28T03:18:58;9.80;56.40
69595;DHT22;56800;52.142;5.364;2023-04-28T03:21:24;9.80;56.40
69595;DHT22;56800;52.142;5.364;2023-04-28T03:23:54;9.80;56.40
69595;DHT22;56800;52.142;5.364;2023-04-28T03:26:21;9.80;56.30
69595;DHT22;56800;52.142;5.364;2023-04-28T03:28:47;9.80;56.20
69595;DHT22;56800;52.142;5.364;2023-04-28T03:31:14;9.80;56.20
69595;DHT22;56800;52.142;5.364;2023-04-28T03:33:41;9.80;56.40
69595;DHT22;56800;52.142;5.364;2023-04-28T03:36:10;9.80;56.80
69595;DHT22;56800;52.142;5.364;2023-04-28T03:38:37;9.80;56.90
69595;DHT22;56800;52.142;5.364;2023-04-28T03:41:04;9.70;56.80
69595;DHT22;56800;52.142;5.364;2023-04-28T03:43:31;9.70;57.10
69595;DHT22;56800;52.142;5.364;2023-04-28T03:45:58;9.70;57.00
69595;DHT22;56800;52.142;5.364;2023-04-28T03:48:25;9.70;57.10
69595;DHT22;56800;52.142;5.364;2023-04-28T03:50:52;9.70;57.20
69595;DHT22;56800;52.142;5.364;2023-04-28T03:53:18;9.70;57.30
69595;DHT22;56800;52.142;5.364;2023-04-28T03:55:45;9.70;57.40
69595;DHT22;56800;52.142;5.364;2023-04-28T03:58:12;9.70;57.40
69595;DHT22;56800;52.142;5.364;2023-04-28T04:00:38;9.70;57.50
69595;DHT22;56800;52.142;5.364;2023-04-28T04:03:05;9.70;57.50
69595;DHT22;56800;52.142;5.364;2023-04-28T04:05:32;9.70;57.50
69595;DHT22;56800;52.142;5.364;2023-04-28T04:07:59;9.70;57.50
69595;DHT22;56800;52.142;5.364;2023-04-28T04:10:25;9.70;57.40
69595;DHT22;56800;52.142;5.364;2023-04-28T04:12:53;9.70;57.40
69595;DHT22;56800;52.142;5.364;2023-04-28T04:15:19;9.70;57.60
69595;DHT22;56800;52.142;5.364;2023-04-28T04:17:46;9.70;57.80
69595;DHT22;56800;52.142;5.364;2023-04-28T04:20:13;9.70;57.80
69595;DHT22;56800;52.142;5.364;2023-04-28T04:22:39;9.70;58.00
69595;DHT22;56800;52.142;5.364;2023-04-28T04:25:06;9.70;58.10
69595;DHT22;56800;52.142;5.364;2023-04-28T04:27:33;9.70;58.10
69595;DHT22;56800;52.142;5.364;2023-04-28T04:30:00;9.70;57.90
69595;DHT22;56800;52.142;5.364;2023-04-28T04:32:26;9.70;57.80
69595;DHT22;56800;52.142;5.364;2023-04-28T04:34:53;9.70;58.10
69595;DHT22;56800;52.142;5.364;2023-04-28T04:37:20;9.70;58.20
69595;DHT22;56800;52.142;5.364;2023-04-28T04:39:46;9.80;58.30
69595;DHT22;56800;52.142;5.364;2023-04-28T04:42:13;9.80;58.50
69595;DHT22;56800;52.142;5.364;2023-04-28T04:44:51;9.80;58.70
69595;DHT22;56800;52.142;5.364;2023-04-28T04:47:17;9.80;58.80
69595;DHT22;56800;52.142;5.364;2023-04-28T04:49:44;9.80;59.10
69595;DHT22;56800;52.142;5.364;2023-04-28T04:52:11;9.80;59.20
69595;DHT22;56800;52.142;5.364;2023-04-28T04:54:37;9.80;59.10
69595;DHT22;56800;52.142;5.364;2023-04-28T04:57:04;9.80;59.00
69595;DHT22;56800;52.142;5.364;2023-04-28T04:59:32;9.80;59.10
69595;DHT22;56800;52.142;5.364;2023-04-28T05:01:59;9.80;59.30
69595;DHT22;56800;52.142;5.364;2023-04-28T05:04:25;9.80;59.40
69595;DHT22;56800;52.142;5.364;2023-04-28T05:06:52;9.80;59.40
69595;DHT22;56800;52.142;5.364;2023-04-28T05:09:19;9.90;59.30
69595;DHT22;56800;52.142;5.364;2023-04-28T05:11:45;9.90;59.30
69595;DHT22;56800;52.142;5.364;2023-04-28T05:14:12;9.90;59.30
69595;DHT22;56800;52.142;5.364;2023-04-28T05:16:41;9.90;60.00
69595;DHT22;56800;52.142;5.364;2023-04-28T05:19:07;9.90;59.00
69595;DHT22;56800;52.142;5.364;2023-04-28T05:21:34;9.90;58.90
69595;DHT22;56800;52.142;5.364;2023-04-28T05:24:01;9.90;59.10
69595;DHT22;56800;52.142;5.364;2023-04-28T05:26:28;10.00;59.50
69595;DHT22;56800;52.142;5.364;2023-04-28T05:28:54;10.00;59.60
69595;DHT22;56800;52.142;5.364;2023-04-28T05:31:21;10.00;59.60
69595;DHT22;56800;52.142;5.364;2023-04-28T05:33:48;10.00;59.70
69595;DHT22;56800;52.142;5.364;2023-04-28T05:36:14;10.00;59.60
69595;DHT22;56800;52.142;5.364;2023-04-28T05:38:42;10.00;60.50
69595;DHT22;56800;52.142;5.364;2023-04-28T05:41:09;10.00;60.20
69595;DHT22;56800;52.142;5.364;2023-04-28T05:43:36;10.00;60.90
69595;DHT22;56800;52.142;5.364;2023-04-28T05:46:02;10.00;61.40
69595;DHT22;56800;52.142;5.364;2023-04-28T05:48:35;10.00;62.00
69595;DHT22;56800;52.142;5.364;2023-04-28T05:51:01;9.90;62.70
69595;DHT22;56800;52.142;5.364;2023-04-28T05:53:29;9.90;63.50
69595;DHT22;56800;52.142;5.364;2023-04-28T05:55:55;9.90;64.00
69595;DHT22;56800;52.142;5.364;2023-04-28T05:58:22;9.80;64.30
69595;DHT22;56800;52.142;5.364;2023-04-28T06:00:49;9.80;64.80
69595;DHT22;56800;52.142;5.364;2023-04-28T06:03:15;9.70;65.20
69595;DHT22;56800;52.142;5.364;2023-04-28T06:05:44;9.80;65.60
69595;DHT22;56800;52.142;5.364;2023-04-28T06:08:11;9.70;65.90
69595;DHT22;56800;52.142;5.364;2023-04-28T06:10:38;9.70;66.30
69595;DHT22;56800;52.142;5.364;2023-04-28T06:13:05;9.70;66.70
69595;DHT22;56800;52.142;5.364;2023-04-28T06:15:32;9.70;66.90
69595;DHT22;56800;52.142;5.364;2023-04-28T06:17:59;9.60;67.20
69595;DHT22;56800;52.142;5.364;2023-04-28T06:20:26;9.60;67.60
69595;DHT22;56800;52.142;5.364;2023-04-28T06:22:53;9.70;68.00
69595;DHT22;56800;52.142;5.364;2023-04-28T06:25:19;9.70;68.30
69595;DHT22;56800;52.142;5.364;2023-04-28T06:27:46;9.70;68.30
69595;DHT22;56800;52.142;5.364;2023-04-28T06:30:17;9.80;68.50
69595;DHT22;56800;52.142;5.364;2023-04-28T06:32:47;9.80;68.50
69595;DHT22;56800;52.142;5.364;2023-04-28T06:35:15;9.90;68.40
69595;DHT22;56800;52.142;5.364;2023-04-28T06:37:42;10.00;68.40
69595;DHT22;56800;52.142;5.364;2023-04-28T06:40:09;10.00;68.50
69595;DHT22;56800;52.142;5.364;2023-04-28T06:42:36;10.10;68.50
69595;DHT22;56800;52.142;5.364;2023-04-28T06:45:03;10.10;68.50
69595;DHT22;56800;52.142;5.364;2023-04-28T06:47:30;10.20;68.60
69595;DHT22;56800;52.142;5.364;2023-04-28T06:49:56;10.20;68.80
69595;DHT22;56800;52.142;5.364;2023-04-28T06:52:23;10.30;68.90
69595;DHT22;56800;52.142;5.364;2023-04-28T06:55:02;10.40;68.90
69595;DHT22;56800;52.142;5.364;2023-04-28T06:57:29;10.40;68.90
69595;DHT22;56800;52.142;5.364;2023-04-28T06:59:55;10.50;69.10
69595;DHT22;56800;52.142;5.364;2023-04-28T07:02:22;10.50;69.10
69595;DHT22;56800;52.142;5.364;2023-04-28T07:04:49;10.50;69.20
69595;DHT22;56800;52.142;5.364;2023-04-28T07:07:16;10.50;69.50
69595;DHT22;56800;52.142;5.364;2023-04-28T07:09:42;10.60;69.80
69595;DHT22;56800;52.142;5.364;2023-04-28T07:12:10;10.70;70.00
69595;DHT22;56800;52.142;5.364;2023-04-28T07:14:36;10.70;70.00
69595;DHT22;56800;52.142;5.364;2023-04-28T07:17:03;10.80;70.00
69595;DHT22;56800;52.142;5.364;2023-04-28T07:19:30;10.90;70.20
69595;DHT22;56800;52.142;5.364;2023-04-28T07:21:56;10.90;70.40
69595;DHT22;56800;52.142;5.364;2023-04-28T07:24:23;11.00;70.50
69595;DHT22;56800;52.142;5.364;2023-04-28T07:26:50;11.00;70.70
69595;DHT22;56800;52.142;5.364;2023-04-28T07:29:17;11.10;70.80
69595;DHT22;56800;52.142;5.364;2023-04-28T07:31:44;11.20;70.80
69595;DHT22;56800;52.142;5.364;2023-04-28T07:34:11;11.30;70.90
69595;DHT22;56800;52.142;5.364;2023-04-28T07:36:37;11.40;70.80
69595;DHT22;56800;52.142;5.364;2023-04-28T07:39:04;11.40;70.80
69595;DHT22;56800;52.142;5.364;2023-04-28T07:41:38;11.50;71.00
69595;DHT22;56800;52.142;5.364;2023-04-28T07:44:05;11.50;71.00
69595;DHT22;56800;52.142;5.364;2023-04-28T07:46:34;11.60;71.00
69595;DHT22;56800;52.142;5.364;2023-04-28T07:49:01;11.70;71.10
69595;DHT22;56800;52.142;5.364;2023-04-28T07:51:28;11.80;71.10
69595;DHT22;56800;52.142;5.364;2023-04-28T07:53:55;11.90;71.10
69595;DHT22;56800;52.142;5.364;2023-04-28T07:56:22;12.00;70.90
69595;DHT22;56800;52.142;5.364;2023-04-28T07:58:49;12.00;70.80
69595;DHT22;56800;52.142;5.364;2023-04-28T08:01:17;12.10;70.80
69595;DHT22;56800;52.142;5.364;2023-04-28T08:03:43;12.10;70.80
69595;DHT22;56800;52.142;5.364;2023-04-28T08:06:11;12.10;70.70
69595;DHT22;56800;52.142;5.364;2023-04-28T08:08:38;12.20;70.70
69595;DHT22;56800;52.142;5.364;2023-04-28T08:11:05;12.20;70.70
69595;DHT22;56800;52.142;5.364;2023-04-28T08:13:33;12.30;70.80
69595;DHT22;56800;52.142;5.364;2023-04-28T08:16:00;12.40;70.80
69595;DHT22;56800;52.142;5.364;2023-04-28T08:18:27;12.40;70.70
69595;DHT22;56800;52.142;5.364;2023-04-28T08:20:54;12.40;70.60
69595;DHT22;56800;52.142;5.364;2023-04-28T08:23:21;12.50;70.70
69595;DHT22;56800;52.142;5.364;2023-04-28T08:25:48;12.50;70.60
69595;DHT22;56800;52.142;5.364;2023-04-28T08:28:15;12.50;71.40
69595;DHT22;56800;52.142;5.364;2023-04-28T08:30:42;12.50;70.70
69595;DHT22;56800;52.142;5.364;2023-04-28T08:33:08;12.50;70.90
69595;DHT22;56800;52.142;5.364;2023-04-28T08:35:35;12.50;71.00
69595;DHT22;56800;52.142;5.364;2023-04-28T08:38:02;12.50;71.10
69595;DHT22;56800;52.142;5.364;2023-04-28T08:40:29;12.50;71.40
69595;DHT22;56800;52.142;5.364;2023-04-28T08:42:57;12.50;71.50
69595;DHT22;56800;52.142;5.364;2023-04-28T08:45:25;12.70;72.00
69595;DHT22;56800;52.142;5.364;2023-04-28T08:47:54;12.80;71.90
69595;DHT22;56800;52.142;5.364;2023-04-28T08:50:22;12.90;72.00
69595;DHT22;56800;52.142;5.364;2023-04-28T08:52:51;12.90;72.00
69595;DHT22;56800;52.142;5.364;2023-04-28T08:55:19;13.00;71.90
69595;DHT22;56800;52.142;5.364;2023-04-28T08:57:48;13.10;71.70
69595;DHT22;56800;52.142;5.364;2023-04-28T09:00:17;13.20;71.80
69595;DHT22;56800;52.142;5.364;2023-04-28T09:02:43;13.30;71.80
69595;DHT22;56800;52.142;5.364;2023-04-28T09:05:12;13.20;71.80
69595;DHT22;56800;52.142;5.364;2023-04-28T09:07:40;13.30;71.80
69595;DHT22;56800;52.142;5.364;2023-04-28T09:12:46;13.30;71.90
69595;DHT22;56800;52.142;5.364;2023-04-28T09:18:00;13.30;71.90
69595;DHT22;56800;52.142;5.364;2023-04-28T09:20:29;13.30;71.90
69595;DHT22;56800;52.142;5.364;2023-04-28T09:23:20;13.20;72.10
69595;DHT22;56800;52.142;5.364;2023-04-28T09:26:05;13.20;72.50
69595;DHT22;56800;52.142;5.364;2023-04-28T09:28:34;13.20;72.70
69595;DHT22;56800;52.142;5.364;2023-04-28T09:31:01;13.30;72.80
69595;DHT22;56800;52.142;5.364;2023-04-28T09:33:30;13.20;72.70
69595;DHT22;56800;52.142;5.364;2023-04-28T09:35:57;13.20;72.90
69595;DHT22;56800;52.142;5.364;2023-04-28T09:38:24;13.20;73.10
69595;DHT22;56800;52.142;5.364;2023-04-28T09:40:56;13.20;73.30
69595;DHT22;56800;52.142;5.364;2023-04-28T09:43:32;13.30;73.50
69595;DHT22;56800;52.142;5.364;2023-04-28T09:46:01;13.30;73.50
69595;DHT22;56800;52.142;5.364;2023-04-28T09:48:33;13.30;73.70
69595;DHT22;56800;52.142;5.364;2023-04-28T09:51:02;13.30;73.90
69595;DHT22;56800;52.142;5.364;2023-04-28T09:53:29;13.40;74.10
69595;DHT22;56800;52.142;5.364;2023-04-28T09:55:59;13.40;74.10
69595;DHT22;56800;52.142;5.364;2023-04-28T09:58:27;13.50;74.30
69595;DHT22;56800;52.142;5.364;2023-04-28T10:00:55;13.50;74.30
69595;DHT22;56800;52.142;5.364;2023-04-28T10:03:25;13.50;74.40
69595;DHT22;56800;52.142;5.364;2023-04-28T10:05:56;13.50;74.50
69595;DHT22;56800;52.142;5.364;2023-04-28T10:08:25;13.60;74.50
69595;DHT22;56800;52.142;5.364;2023-04-28T10:10:53;13.60;74.70
69595;DHT22;56800;52.142;5.364;2023-04-28T10:13:21;13.60;74.80
69595;DHT22;56800;52.142;5.364;2023-04-28T10:15:49;13.60;74.80
69595;DHT22;56800;52.142;5.364;2023-04-28T10:18:16;13.60;74.90
69595;DHT22;56800;52.142;5.364;2023-04-28T10:20:56;13.60;75.10
69595;DHT22;56800;52.142;5.364;2023-04-28T10:25:57;13.70;75.50
69595;DHT22;56800;52.142;5.364;2023-04-28T10:28:28;13.70;75.50
69595;DHT22;56800;52.142;5.364;2023-04-28T10:31:12;13.70;75.60
69595;DHT22;56800;52.142;5.364;2023-04-28T10:33:39;13.70;75.70
69595;DHT22;56800;52.142;5.364;2023-04-28T10:36:07;13.80;75.70
69595;DHT22;56800;52.142;5.364;2023-04-28T10:38:34;13.80;75.60
69595;DHT22;56800;52.142;5.364;2023-04-28T10:41:01;13.80;75.60
69595;DHT22;56800;52.142;5.364;2023-04-28T10:56:14;14.00;76.10
69595;DHT22;56800;52.142;5.364;2023-04-28T10:58:43;14.10;76.10
69595;DHT22;56800;52.142;5.364;2023-04-28T11:06:34;14.20;76.20
69595;DHT22;56800;52.142;5.364;2023-04-28T11:14:29;14.30;76.50
69595;DHT22;56800;52.142;5.364;2023-04-28T11:17:04;14.30;76.50
69595;DHT22;56800;52.142;5.364;2023-04-28T11:22:02;14.40;76.30
69595;DHT22;56800;52.142;5.364;2023-04-28T11:24:30;14.40;76.50
69595;DHT22;56800;52.142;5.364;2023-04-28T11:26:58;14.40;76.80
69595;DHT22;56800;52.142;5.364;2023-04-28T11:29:35;14.40;76.80
69595;DHT22;56800;52.142;5.364;2023-04-28T11:32:06;14.40;76.90
69595;DHT22;56800;52.142;5.364;2023-04-28T11:34:34;14.40;76.90
69595;DHT22;56800;52.142;5.364;2023-04-28T11:37:02;14.40;76.90
69595;DHT22;56800;52.142;5.364;2023-04-28T11:39:31;14.50;77.00
69595;DHT22;56800;52.142;5.364;2023-04-28T11:42:08;14.50;77.00
69595;DHT22;56800;52.142;5.364;2023-04-28T11:44:35;14.50;76.90
69595;DHT22;56800;52.142;5.364;2023-04-28T11:47:03;14.60;77.00
69595;DHT22;56800;52.142;5.364;2023-04-28T11:49:41;14.60;76.70
69595;DHT22;56800;52.142;5.364;2023-04-28T11:52:09;14.60;76.60
69595;DHT22;56800;52.142;5.364;2023-04-28T11:54:36;14.70;76.60
69595;DHT22;56800;52.142;5.364;2023-04-28T11:57:04;14.70;76.70
69595;DHT22;56800;52.142;5.364;2023-04-28T11:59:34;14.80;76.80
69595;DHT22;56800;52.142;5.364;2023-04-28T12:02:04;14.80;76.80
69595;DHT22;56800;52.142;5.364;2023-04-28T12:04:37;14.80;76.60
69595;DHT22;56800;52.142;5.364;2023-04-28T12:07:18;14.80;76.40
69595;DHT22;56800;52.142;5.364;2023-04-28T12:10:10;14.80;76.40
69595;DHT22;56800;52.142;5.364;2023-04-28T12:12:38;14.90;76.60
69595;DHT22;56800;52.142;5.364;2023-04-28T12:15:17;14.90;76.60
69595;DHT22;56800;52.142;5.364;2023-04-28T12:17:46;15.00;76.60
69595;DHT22;56800;52.142;5.364;2023-04-28T12:20:36;15.00;76.50
69595;DHT22;56800;52.142;5.364;2023-04-28T12:23:04;15.00;76.40
69595;DHT22;56800;52.142;5.364;2023-04-28T12:25:31;15.00;77.00
69595;DHT22;56800;52.142;5.364;2023-04-28T12:28:09;15.10;76.20
69595;DHT22;56800;52.142;5.364;2023-04-28T12:30:36;15.00;76.20
69595;DHT22;56800;52.142;5.364;2023-04-28T12:33:26;15.10;76.40
69595;DHT22;56800;52.142;5.364;2023-04-28T12:35:57;15.10;76.50
69595;DHT22;56800;52.142;5.364;2023-04-28T12:38:25;15.10;76.30
69595;DHT22;56800;52.142;5.364;2023-04-28T12:40:53;15.10;76.30
69595;DHT22;56800;52.142;5.364;2023-04-28T12:43:21;15.10;76.40
69595;DHT22;56800;52.142;5.364;2023-04-28T12:45:50;15.10;76.40
69595;DHT22;56800;52.142;5.364;2023-04-28T12:48:18;15.10;76.30
69595;DHT22;56800;52.142;5.364;2023-04-28T12:50:45;15.10;76.10
69595;DHT22;56800;52.142;5.364;2023-04-28T12:53:11;15.10;76.00
69595;DHT22;56800;52.142;5.364;2023-04-28T12:55:38;15.10;76.00
69595;DHT22;56800;52.142;5.364;2023-04-28T12:58:05;15.00;75.90
69595;DHT22;56800;52.142;5.364;2023-04-28T13:00:32;15.10;76.20
69595;DHT22;56800;52.142;5.364;2023-04-28T13:02:59;15.10;76.50
69595;DHT22;56800;52.142;5.364;2023-04-28T13:05:26;15.20;76.60
69595;DHT22;56800;52.142;5.364;2023-04-28T13:07:53;15.20;76.50
69595;DHT22;56800;52.142;5.364;2023-04-28T13:10:19;15.30;76.40
69595;DHT22;56800;52.142;5.364;2023-04-28T13:12:48;15.30;76.10
69595;DHT22;56800;52.142;5.364;2023-04-28T13:15:15;15.30;75.80
69595;DHT22;56800;52.142;5.364;2023-04-28T13:17:42;15.20;75.90
69595;DHT22;56800;52.142;5.364;2023-04-28T13:20:09;15.20;76.00
69595;DHT22;56800;52.142;5.364;2023-04-28T13:22:36;15.20;76.00
69595;DHT22;56800;52.142;5.364;2023-04-28T13:25:03;15.20;76.20
69595;DHT22;56800;52.142;5.364;2023-04-28T13:27:30;15.20;76.40
69595;DHT22;56800;52.142;5.364;2023-04-28T13:29:59;15.30;76.40
69595;DHT22;56800;52.142;5.364;2023-04-28T13:32:26;15.30;76.40
69595;DHT22;56800;52.142;5.364;2023-04-28T13:34:53;15.30;76.40
69595;DHT22;56800;52.142;5.364;2023-04-28T13:37:20;15.40;76.20
69595;DHT22;56800;52.142;5.364;2023-04-28T13:39:47;15.40;76.20
69595;DHT22;56800;52.142;5.364;2023-04-28T13:42:13;15.40;76.10
69595;DHT22;56800;52.142;5.364;2023-04-28T13:44:41;15.40;76.20
69595;DHT22;56800;52.142;5.364;2023-04-28T13:47:08;15.40;76.20
69595;DHT22;56800;52.142;5.364;2023-04-28T13:49:36;15.30;76.30
69595;DHT22;56800;52.142;5.364;2023-04-28T13:52:02;15.30;76.40
69595;DHT22;56800;52.142;5.364;2023-04-28T13:54:29;15.30;76.40
69595;DHT22;56800;52.142;5.364;2023-04-28T13:56:56;15.30;76.40
69595;DHT22;56800;52.142;5.364;2023-04-28T13:59:23;15.30;76.60
69595;DHT22;56800;52.142;5.364;2023-04-28T14:01:50;15.30;76.60
69595;DHT22;56800;52.142;5.364;2023-04-28T14:04:17;15.30;76.60
69595;DHT22;56800;52.142;5.364;2023-04-28T14:06:44;15.20;76.50
69595;DHT22;56800;52.142;5.364;2023-04-28T14:09:11;15.20;76.60
69595;DHT22;56800;52.142;5.364;2023-04-28T14:11:37;15.10;76.60
69595;DHT22;56800;52.142;5.364;2023-04-28T14:14:04;15.10;76.60
69595;DHT22;56800;52.142;5.364;2023-04-28T14:16:31;15.00;76.80
69595;DHT22;56800;52.142;5.364;2023-04-28T14:18:57;15.00;76.80
69595;DHT22;56800;52.142;5.364;2023-04-28T14:21:24;15.00;77.10
69595;DHT22;56800;52.142;5.364;2023-04-28T14:23:52;15.00;77.30
69595;DHT22;56800;52.142;5.364;2023-04-28T14:26:18;15.10;77.20
69595;DHT22;56800;52.142;5.364;2023-04-28T14:28:45;15.00;77.00
69595;DHT22;56800;52.142;5.364;2023-04-28T14:31:13;15.10;77.10
69595;DHT22;56800;52.142;5.364;2023-04-28T14:33:39;15.00;76.90
69595;DHT22;56800;52.142;5.364;2023-04-28T14:36:06;15.00;76.90
69595;DHT22;56800;52.142;5.364;2023-04-28T14:38:33;14.90;77.00
69595;DHT22;56800;52.142;5.364;2023-04-28T14:41:00;14.90;77.10
69595;DHT22;56800;52.142;5.364;2023-04-28T14:43:26;14.80;77.00
69595;DHT22;56800;52.142;5.364;2023-04-28T14:45:53;14.80;77.00
69595;DHT22;56800;52.142;5.364;2023-04-28T14:48:20;14.80;77.30
69595;DHT22;56800;52.142;5.364;2023-04-28T14:50:46;14.70;77.30
69595;DHT22;56800;52.142;5.364;2023-04-28T14:53:13;14.70;77.40
69595;DHT22;56800;52.142;5.364;2023-04-28T14:55:40;14.70;77.40
69595;DHT22;56800;52.142;5.364;2023-04-28T14:58:06;14.70;77.50
69595;DHT22;56800;52.142;5.364;2023-04-28T15:00:34;14.70;77.60
69595;DHT22;56800;52.142;5.364;2023-04-28T15:03:00;14.70;77.70
69595;DHT22;56800;52.142;5.364;2023-04-28T15:05:27;14.70;77.60
69595;DHT22;56800;52.142;5.364;2023-04-28T15:07:54;14.70;77.70
69595;DHT22;56800;52.142;5.364;2023-04-28T15:10:21;14.70;77.80
69595;DHT22;56800;52.142;5.364;2023-04-28T15:12:47;14.70;77.80
69595;DHT22;56800;52.142;5.364;2023-04-28T15:15:14;14.60;77.70
69595;DHT22;56800;52.142;5.364;2023-04-28T15:17:41;14.70;77.70
69595;DHT22;56800;52.142;5.364;2023-04-28T15:20:08;14.60;77.90
69595;DHT22;56800;52.142;5.364;2023-04-28T15:22:35;14.60;77.90
69595;DHT22;56800;52.142;5.364;2023-04-28T15:25:03;14.60;78.00
69595;DHT22;56800;52.142;5.364;2023-04-28T15:27:30;14.50;77.90
69595;DHT22;56800;52.142;5.364;2023-04-28T15:29:57;14.50;78.10
69595;DHT22;56800;52.142;5.364;2023-04-28T15:32:24;14.40;78.20
69595;DHT22;56800;52.142;5.364;2023-04-28T15:34:50;14.50;78.30
69595;DHT22;56800;52.142;5.364;2023-04-28T15:40:08;14.50;78.40
69595;DHT22;56800;52.142;5.364;2023-04-28T15:42:35;14.40;78.40
69595;DHT22;56800;52.142;5.364;2023-04-28T15:45:04;14.40;78.40
69595;DHT22;56800;52.142;5.364;2023-04-28T15:47:30;14.40;78.40
69595;DHT22;56800;52.142;5.364;2023-04-28T15:49:58;14.40;78.40
69595;DHT22;56800;52.142;5.364;2023-04-28T15:52:25;14.40;78.50
69595;DHT22;56800;52.142;5.364;2023-04-28T15:54:54;14.30;78.40
69595;DHT22;56800;52.142;5.364;2023-04-28T15:57:21;14.30;78.50
69595;DHT22;56800;52.142;5.364;2023-04-28T15:59:47;14.30;78.70
69595;DHT22;56800;52.142;5.364;2023-04-28T16:02:15;14.20;78.70
69595;DHT22;56800;52.142;5.364;2023-04-28T16:04:42;14.20;78.80
69595;DHT22;56800;52.142;5.364;2023-04-28T16:07:09;14.20;78.80
69595;DHT22;56800;52.142;5.364;2023-04-28T16:09:35;14.20;78.80
69595;DHT22;56800;52.142;5.364;2023-04-28T16:12:02;14.20;78.80
69595;DHT22;56800;52.142;5.364;2023-04-28T16:14:29;14.20;78.90